sensor_id;sensor_type;location;lat;lon;timestamp;pressure;altitude;pressure_sealevel;temperature;humidity
77889;BME280;67082;41.704;44.768;2023-02-15T00:00:08;95603.53;;;3.25;43.16
77889;BME280;67082;41.704;44.768;2023-02-15T00:02:59;95589.44;;;3.26;42.57
77889;BME280;67082;41.704;44.768;2023-02-15T00:05:27;95599.88;;;2.98;43.17
77889;BME280;67082;41.704;44.768;2023-02-15T00:07:56;95588.50;;;3.03;43.41
77889;BME280;67082;41.704;44.768;2023-02-15T00:10:24;95584.13;;;3.09;43.29
77889;BME280;67082;41.704;44.768;2023-02-15T00:12:52;95564.19;;;3.12;42.96
77889;BME280;67082;41.704;44.768;2023-02-15T00:15:21;95573.59;;;3.07;43.46
77889;BME280;67082;41.704;44.768;2023-02-15T00:17:49;95567.41;;;3.03;43.60
77889;BME280;67082;41.704;44.768;2023-02-15T00:20:17;95556.13;;;2.94;44.60
77889;BME280;67082;41.704;44.768;2023-02-15T00:22:46;95564.41;;;2.87;44.14
77889;BME280;67082;41.704;44.768;2023-02-15T00:25:14;95559.53;;;3.05;43.72
77889;BME280;67082;41.704;44.768;2023-02-15T00:27:42;95562.59;;;2.74;46.86
77889;BME280;67082;41.704;44.768;2023-02-15T00:30:11;95559.69;;;2.47;46.79
77889;BME280;67082;41.704;44.768;2023-02-15T00:32:39;95555.84;;;2.38;46.55
77889;BME280;67082;41.704;44.768;2023-02-15T00:35:08;95550.31;;;2.48;47.34
77889;BME280;67082;41.704;44.768;2023-02-15T00:37:36;95537.63;;;2.21;47.55
77889;BME280;67082;41.704;44.768;2023-02-15T00:40:05;95534.97;;;2.07;47.51
77889;BME280;67082;41.704;44.768;2023-02-15T00:42:33;95545.06;;;2.17;47.09
77889;BME280;67082;41.704;44.768;2023-02-15T00:45:02;95539.28;;;2.08;47.31
77889;BME280;67082;41.704;44.768;2023-02-15T00:47:30;95526.91;;;1.93;47.25
77889;BME280;67082;41.704;44.768;2023-02-15T00:49:58;95532.22;;;2.14;47.14
77889;BME280;67082;41.704;44.768;2023-02-15T00:52:26;95539.72;;;2.03;47.80
77889;BME280;67082;41.704;44.768;2023-02-15T00:54:56;95529.75;;;1.68;48.12
77889;BME280;67082;41.704;44.768;2023-02-15T00:57:23;95518.97;;;1.40;48.61
77889;BME280;67082;41.704;44.768;2023-02-15T00:59:52;95512.16;;;1.80;48.40
77889;BME280;67082;41.704;44.768;2023-02-15T01:02:20;95532.13;;;1.66;48.06
77889;BME280;67082;41.704;44.768;2023-02-15T01:04:48;95524.41;;;1.51;49.23
77889;BME280;67082;41.704;44.768;2023-02-15T01:07:16;95516.72;;;1.97;47.64
77889;BME280;67082;41.704;44.768;2023-02-15T01:09:45;95519.28;;;2.18;47.82
77889;BME280;67082;41.704;44.768;2023-02-15T01:12:13;95527.78;;;2.30;46.90
77889;BME280;67082;41.704;44.768;2023-02-15T01:14:41;95521.91;;;2.35;46.74
77889;BME280;67082;41.704;44.768;2023-02-15T01:17:09;95514.84;;;2.38;46.27
77889;BME280;67082;41.704;44.768;2023-02-15T01:19:37;95517.69;;;2.24;46.63
77889;BME280;67082;41.704;44.768;2023-02-15T01:22:06;95518.75;;;1.86;48.07
77889;BME280;67082;41.704;44.768;2023-02-15T01:24:35;95510.38;;;2.14;47.55
77889;BME280;67082;41.704;44.768;2023-02-15T01:27:03;95500.91;;;2.22;47.17
77889;BME280;67082;41.704;44.768;2023-02-15T01:29:31;95502.66;;;2.02;47.73
77889;BME280;67082;41.704;44.768;2023-02-15T01:31:59;95497.41;;;2.25;46.68
77889;BME280;67082;41.704;44.768;2023-02-15T01:34:29;95495.78;;;2.31;46.46
77889;BME280;67082;41.704;44.768;2023-02-15T01:36:57;95498.00;;;2.46;46.33
77889;BME280;67082;41.704;44.768;2023-02-15T01:39:26;95500.00;;;2.39;46.91
77889;BME280;67082;41.704;44.768;2023-02-15T01:41:54;95492.97;;;2.38;46.74
77889;BME280;67082;41.704;44.768;2023-02-15T01:44:54;95491.00;;;2.42;46.59
77889;BME280;67082;41.704;44.768;2023-02-15T01:52:44;95485.44;;;2.52;45.95
77889;BME280;67082;41.704;44.768;2023-02-15T01:55:17;95481.50;;;2.53;46.79
77889;BME280;67082;41.704;44.768;2023-02-15T01:57:46;95470.69;;;2.43;46.46
77889;BME280;67082;41.704;44.768;2023-02-15T02:00:15;95477.56;;;2.58;46.77
77889;BME280;67082;41.704;44.768;2023-02-15T02:02:50;95467.47;;;2.51;45.87
77889;BME280;67082;41.704;44.768;2023-02-15T02:05:25;95465.94;;;2.47;46.62
77889;BME280;67082;41.704;44.768;2023-02-15T02:07:57;95453.19;;;2.30;46.69
77889;BME280;67082;41.704;44.768;2023-02-15T02:10:27;95470.69;;;2.43;45.92
77889;BME280;67082;41.704;44.768;2023-02-15T02:13:03;95462.94;;;2.34;47.12
77889;BME280;67082;41.704;44.768;2023-02-15T02:15:57;95463.78;;;2.28;46.85
77889;BME280;67082;41.704;44.768;2023-02-15T02:27:31;95462.59;;;2.29;46.08
77889;BME280;67082;41.704;44.768;2023-02-15T02:30:18;95456.44;;;1.70;47.15
77889;BME280;67082;41.704;44.768;2023-02-15T02:39:00;95456.69;;;2.34;46.62
77889;BME280;67082;41.704;44.768;2023-02-15T02:41:32;95460.59;;;2.33;46.73
77889;BME280;67082;41.704;44.768;2023-02-15T02:44:23;95444.59;;;2.31;46.37
77889;BME280;67082;41.704;44.768;2023-02-15T02:46:57;95447.31;;;2.35;46.16
77889;BME280;67082;41.704;44.768;2023-02-15T02:49:35;95454.31;;;2.39;46.10
77889;BME280;67082;41.704;44.768;2023-02-15T02:52:51;95456.63;;;2.41;45.93
77889;BME280;67082;41.704;44.768;2023-02-15T02:54:55;95445.72;;;2.37;46.65
77889;BME280;67082;41.704;44.768;2023-02-15T02:57:27;95444.13;;;2.40;46.06
77889;BME280;67082;41.704;44.768;2023-02-15T02:59:57;95442.50;;;2.46;46.24
77889;BME280;67082;41.704;44.768;2023-02-15T03:02:35;95456.88;;;2.57;45.36
77889;BME280;67082;41.704;44.768;2023-02-15T03:05:10;95449.03;;;2.59;45.55
77889;BME280;67082;41.704;44.768;2023-02-15T03:07:41;95448.28;;;2.55;46.10
77889;BME280;67082;41.704;44.768;2023-02-15T03:10:10;95446.78;;;2.50;46.36
77889;BME280;67082;41.704;44.768;2023-02-15T03:12:40;95448.28;;;2.55;46.71
77889;BME280;67082;41.704;44.768;2023-02-15T03:15:20;95445.25;;;2.46;44.94
77889;BME280;67082;41.704;44.768;2023-02-15T03:17:57;95436.81;;;2.30;45.50
77889;BME280;67082;41.704;44.768;2023-02-15T03:20:33;95448.41;;;2.41;45.86
77889;BME280;67082;41.704;44.768;2023-02-15T03:23:10;95442.63;;;2.35;45.86
77889;BME280;67082;41.704;44.768;2023-02-15T03:26:04;95444.28;;;2.26;46.07
77889;BME280;67082;41.704;44.768;2023-02-15T03:28:37;95446.13;;;2.39;45.20
77889;BME280;67082;41.704;44.768;2023-02-15T03:31:10;95443.34;;;2.43;45.61
77889;BME280;67082;41.704;44.768;2023-02-15T03:33:44;95453.09;;;1.96;47.25
77889;BME280;67082;41.704;44.768;2023-02-15T03:36:27;95431.84;;;2.18;47.27
77889;BME280;67082;41.704;44.768;2023-02-15T03:39:34;95446.63;;;2.27;46.82
77889;BME280;67082;41.704;44.768;2023-02-15T03:42:23;95451.38;;;2.20;46.89
77889;BME280;67082;41.704;44.768;2023-02-15T03:45:04;95453.00;;;2.07;47.31
77889;BME280;67082;41.704;44.768;2023-02-15T03:47:37;95454.63;;;2.04;47.13
77889;BME280;67082;41.704;44.768;2023-02-15T03:50:11;95451.63;;;1.88;46.80
77889;BME280;67082;41.704;44.768;2023-02-15T03:53:02;95455.09;;;1.96;47.61
77889;BME280;67082;41.704;44.768;2023-02-15T03:55:34;95467.22;;;1.88;47.68
77889;BME280;67082;41.704;44.768;2023-02-15T03:58:03;95454.97;;;1.55;48.31
77889;BME280;67082;41.704;44.768;2023-02-15T04:01:03;95453.38;;;1.58;48.38
77889;BME280;67082;41.704;44.768;2023-02-15T04:03:56;95461.69;;;1.37;48.62
77889;BME280;67082;41.704;44.768;2023-02-15T04:06:25;95458.50;;;1.49;47.76
77889;BME280;67082;41.704;44.768;2023-02-15T04:08:53;95466.47;;;1.19;49.16
77889;BME280;67082;41.704;44.768;2023-02-15T04:11:39;95460.53;;;1.34;48.66
77889;BME280;67082;41.704;44.768;2023-02-15T04:14:08;95452.50;;;1.75;48.24
77889;BME280;67082;41.704;44.768;2023-02-15T04:16:54;95465.72;;;1.80;47.36
77889;BME280;67082;41.704;44.768;2023-02-15T04:19:23;95463.28;;;1.92;47.86
77889;BME280;67082;41.704;44.768;2023-02-15T04:22:09;95465.19;;;1.41;47.99
77889;BME280;67082;41.704;44.768;2023-02-15T04:24:56;95463.78;;;1.12;48.83
77889;BME280;67082;41.704;44.768;2023-02-15T04:27:50;95448.69;;;1.62;47.56
77889;BME280;67082;41.704;44.768;2023-02-15T04:30:21;95466.03;;;1.89;47.34
77889;BME280;67082;41.704;44.768;2023-02-15T04:32:50;95468.56;;;2.17;46.40
77889;BME280;67082;41.704;44.768;2023-02-15T04:35:18;95455.44;;;1.98;46.84
77889;BME280;67082;41.704;44.768;2023-02-15T04:37:46;95472.78;;;2.25;46.20
77889;BME280;67082;41.704;44.768;2023-02-15T04:40:15;95465.09;;;2.09;45.89
77889;BME280;67082;41.704;44.768;2023-02-15T04:42:48;95468.50;;;2.24;46.15
77889;BME280;67082;41.704;44.768;2023-02-15T04:45:17;95452.84;;;2.28;46.14
77889;BME280;67082;41.704;44.768;2023-02-15T04:47:45;95462.44;;;2.46;46.10
77889;BME280;67082;41.704;44.768;2023-02-15T04:50:14;95444.22;;;2.33;46.11
77889;BME280;67082;41.704;44.768;2023-02-15T04:52:42;95456.94;;;2.50;45.54
77889;BME280;67082;41.704;44.768;2023-02-15T04:55:10;95455.00;;;2.47;45.89
77889;BME280;67082;41.704;44.768;2023-02-15T04:57:38;95450.44;;;2.74;45.70
77889;BME280;67082;41.704;44.768;2023-02-15T05:00:07;95449.25;;;2.75;44.77
77889;BME280;67082;41.704;44.768;2023-02-15T05:02:37;95449.91;;;2.86;45.39
77889;BME280;67082;41.704;44.768;2023-02-15T05:05:06;95433.19;;;2.80;45.15
77889;BME280;67082;41.704;44.768;2023-02-15T05:07:34;95434.97;;;2.94;45.40
77889;BME280;67082;41.704;44.768;2023-02-15T05:10:03;95450.41;;;3.11;45.42
77889;BME280;67082;41.704;44.768;2023-02-15T05:12:31;95447.91;;;3.23;44.67
77889;BME280;67082;41.704;44.768;2023-02-15T05:14:59;95458.34;;;3.32;44.03
77889;BME280;67082;41.704;44.768;2023-02-15T05:17:28;95445.25;;;3.16;43.79
77889;BME280;67082;41.704;44.768;2023-02-15T05:19:56;95444.56;;;3.09;43.70
77889;BME280;67082;41.704;44.768;2023-02-15T05:22:24;95445.19;;;2.90;43.59
77889;BME280;67082;41.704;44.768;2023-02-15T05:24:53;95441.56;;;3.00;43.67
77889;BME280;67082;41.704;44.768;2023-02-15T05:27:39;95446.38;;;2.89;43.40
77889;BME280;67082;41.704;44.768;2023-02-15T05:30:26;95433.50;;;2.86;44.19
77889;BME280;67082;41.704;44.768;2023-02-15T05:32:54;95444.59;;;3.05;43.62
77889;BME280;67082;41.704;44.768;2023-02-15T05:35:22;95432.84;;;3.08;43.20
77889;BME280;67082;41.704;44.768;2023-02-15T05:37:51;95441.50;;;3.33;42.88
77889;BME280;67082;41.704;44.768;2023-02-15T05:40:19;95440.84;;;3.52;43.16
77889;BME280;67082;41.704;44.768;2023-02-15T05:42:47;95448.84;;;3.70;41.63
77889;BME280;67082;41.704;44.768;2023-02-15T05:45:15;95435.41;;;3.22;42.50
77889;BME280;67082;41.704;44.768;2023-02-15T05:47:43;95434.09;;;3.30;42.33
77889;BME280;67082;41.704;44.768;2023-02-15T05:50:11;95438.69;;;3.10;42.56
77889;BME280;67082;41.704;44.768;2023-02-15T05:52:39;95435.44;;;3.49;42.69
77889;BME280;67082;41.704;44.768;2023-02-15T05:55:08;95445.94;;;3.24;42.76
77889;BME280;67082;41.704;44.768;2023-02-15T05:57:36;95432.59;;;3.56;42.05
77889;BME280;67082;41.704;44.768;2023-02-15T06:00:05;95426.69;;;3.31;41.79
77889;BME280;67082;41.704;44.768;2023-02-15T06:02:39;95420.66;;;3.13;43.09
77889;BME280;67082;41.704;44.768;2023-02-15T06:05:08;95425.78;;;3.11;43.50
77889;BME280;67082;41.704;44.768;2023-02-15T06:07:36;95418.13;;;3.29;42.57
77889;BME280;67082;41.704;44.768;2023-02-15T06:10:05;95415.44;;;3.52;41.96
77889;BME280;67082;41.704;44.768;2023-02-15T06:12:33;95409.41;;;3.37;42.51
77889;BME280;67082;41.704;44.768;2023-02-15T06:15:03;95403.66;;;3.55;41.46
77889;BME280;67082;41.704;44.768;2023-02-15T06:17:31;95409.63;;;3.73;40.99
77889;BME280;67082;41.704;44.768;2023-02-15T06:20:00;95390.66;;;3.85;41.08
77889;BME280;67082;41.704;44.768;2023-02-15T06:22:28;95405.69;;;4.00;40.73
77889;BME280;67082;41.704;44.768;2023-02-15T06:24:57;95399.19;;;4.14;41.07
77889;BME280;67082;41.704;44.768;2023-02-15T06:27:25;95399.69;;;3.86;41.06
77889;BME280;67082;41.704;44.768;2023-02-15T06:29:53;95391.63;;;4.21;40.86
77889;BME280;67082;41.704;44.768;2023-02-15T06:32:21;95385.19;;;4.31;40.63
77889;BME280;67082;41.704;44.768;2023-02-15T06:34:49;95388.53;;;4.42;40.35
77889;BME280;67082;41.704;44.768;2023-02-15T06:37:17;95381.97;;;4.36;40.40
77889;BME280;67082;41.704;44.768;2023-02-15T06:39:45;95370.59;;;4.15;41.02
77889;BME280;67082;41.704;44.768;2023-02-15T06:42:15;95378.78;;;4.61;40.08
77889;BME280;67082;41.704;44.768;2023-02-15T06:44:45;95373.53;;;4.47;39.97
77889;BME280;67082;41.704;44.768;2023-02-15T06:47:13;95383.38;;;4.44;40.12
77889;BME280;67082;41.704;44.768;2023-02-15T06:49:42;95375.91;;;4.68;39.17
77889;BME280;67082;41.704;44.768;2023-02-15T06:52:09;95369.53;;;4.71;39.51
77889;BME280;67082;41.704;44.768;2023-02-15T06:54:41;95369.63;;;3.79;40.50
77889;BME280;67082;41.704;44.768;2023-02-15T06:57:09;95369.28;;;4.00;40.70
77889;BME280;67082;41.704;44.768;2023-02-15T06:59:37;95361.41;;;4.25;40.05
77889;BME280;67082;41.704;44.768;2023-02-15T07:02:05;95365.56;;;4.33;39.96
77889;BME280;67082;41.704;44.768;2023-02-15T07:04:34;95365.00;;;4.22;39.91
77889;BME280;67082;41.704;44.768;2023-02-15T07:07:02;95354.97;;;4.35;40.48
77889;BME280;67082;41.704;44.768;2023-02-15T07:09:30;95357.63;;;4.38;39.60
77889;BME280;67082;41.704;44.768;2023-02-15T07:11:58;95346.56;;;4.22;40.10
77889;BME280;67082;41.704;44.768;2023-02-15T07:14:45;95354.81;;;4.42;39.65
77889;BME280;67082;41.704;44.768;2023-02-15T07:17:13;95351.53;;;4.50;39.86
77889;BME280;67082;41.704;44.768;2023-02-15T07:20:08;95342.59;;;4.46;39.21
77889;BME280;67082;41.704;44.768;2023-02-15T07:22:37;95348.53;;;4.64;39.69
77889;BME280;67082;41.704;44.768;2023-02-15T07:25:08;95339.81;;;4.89;38.89
77889;BME280;67082;41.704;44.768;2023-02-15T07:27:37;95340.13;;;4.52;39.53
77889;BME280;67082;41.704;44.768;2023-02-15T07:30:08;95344.84;;;4.51;39.86
77889;BME280;67082;41.704;44.768;2023-02-15T07:32:38;95338.94;;;4.72;39.10
77889;BME280;67082;41.704;44.768;2023-02-15T07:35:27;95333.69;;;4.81;39.01
77889;BME280;67082;41.704;44.768;2023-02-15T07:37:55;95346.84;;;4.70;38.70
77889;BME280;67082;41.704;44.768;2023-02-15T07:40:23;95326.84;;;4.89;38.34
77889;BME280;67082;41.704;44.768;2023-02-15T07:42:52;95331.91;;;4.71;38.69
77889;BME280;67082;41.704;44.768;2023-02-15T07:45:22;95342.41;;;4.57;38.44
77889;BME280;67082;41.704;44.768;2023-02-15T07:47:50;95329.38;;;4.80;38.60
77889;BME280;67082;41.704;44.768;2023-02-15T07:50:19;95338.66;;;4.47;38.79
77889;BME280;67082;41.704;44.768;2023-02-15T07:52:48;95322.28;;;4.63;38.96
77889;BME280;67082;41.704;44.768;2023-02-15T07:55:17;95332.06;;;4.84;38.20
77889;BME280;67082;41.704;44.768;2023-02-15T07:57:47;95320.63;;;4.85;38.61
77889;BME280;67082;41.704;44.768;2023-02-15T08:00:17;95320.22;;;4.87;37.90
77889;BME280;67082;41.704;44.768;2023-02-15T08:02:53;95326.16;;;5.21;37.67
77889;BME280;67082;41.704;44.768;2023-02-15T08:05:58;95321.81;;;5.39;38.01
77889;BME280;67082;41.704;44.768;2023-02-15T08:08:27;95319.06;;;5.04;38.19
77889;BME280;67082;41.704;44.768;2023-02-15T08:11:03;95312.63;;;4.94;38.12
77889;BME280;67082;41.704;44.768;2023-02-15T08:13:55;95308.94;;;5.52;36.75
77889;BME280;67082;41.704;44.768;2023-02-15T08:19:18;95308.63;;;5.98;37.07
77889;BME280;67082;41.704;44.768;2023-02-15T08:21:52;95315.47;;;6.06;36.01
77889;BME280;67082;41.704;44.768;2023-02-15T08:24:22;95296.06;;;6.13;35.95
77889;BME280;67082;41.704;44.768;2023-02-15T08:26:52;95290.00;;;5.90;36.22
77889;BME280;67082;41.704;44.768;2023-02-15T08:29:22;95286.44;;;5.41;36.67
77889;BME280;67082;41.704;44.768;2023-02-15T08:32:11;95281.16;;;5.82;36.28
77889;BME280;67082;41.704;44.768;2023-02-15T08:34:41;95291.00;;;6.12;36.20
77889;BME280;67082;41.704;44.768;2023-02-15T08:37:10;95276.31;;;6.02;36.36
77889;BME280;67082;41.704;44.768;2023-02-15T08:39:37;95278.75;;;6.29;35.74
77889;BME280;67082;41.704;44.768;2023-02-15T08:42:06;95271.47;;;6.51;34.95
77889;BME280;67082;41.704;44.768;2023-02-15T08:44:34;95261.09;;;6.42;35.28
77889;BME280;67082;41.704;44.768;2023-02-15T08:47:02;95260.31;;;6.83;35.15
77889;BME280;67082;41.704;44.768;2023-02-15T08:49:31;95253.50;;;6.87;34.85
77889;BME280;67082;41.704;44.768;2023-02-15T08:51:59;95246.69;;;6.92;34.54
77889;BME280;67082;41.704;44.768;2023-02-15T08:54:28;95244.97;;;6.69;34.11
77889;BME280;67082;41.704;44.768;2023-02-15T08:56:57;95235.19;;;6.68;34.42
77889;BME280;67082;41.704;44.768;2023-02-15T08:59:25;95225.13;;;6.21;34.92
77889;BME280;67082;41.704;44.768;2023-02-15T09:01:54;95229.19;;;6.45;35.04
77889;BME280;67082;41.704;44.768;2023-02-15T09:04:24;95215.94;;;5.99;35.52
77889;BME280;67082;41.704;44.768;2023-02-15T09:06:52;95218.06;;;6.07;34.98
77889;BME280;67082;41.704;44.768;2023-02-15T09:09:21;95208.41;;;5.87;35.37
77889;BME280;67082;41.704;44.768;2023-02-15T09:11:51;95217.16;;;6.10;34.98
77889;BME280;67082;41.704;44.768;2023-02-15T09:14:26;95207.19;;;6.45;34.87
77889;BME280;67082;41.704;44.768;2023-02-15T09:16:54;95192.75;;;6.41;35.04
77889;BME280;67082;41.704;44.768;2023-02-15T09:19:23;95191.06;;;6.31;34.51
77889;BME280;67082;41.704;44.768;2023-02-15T09:21:52;95205.38;;;5.81;35.58
77889;BME280;67082;41.704;44.768;2023-02-15T09:24:20;95196.69;;;5.99;34.95
77889;BME280;67082;41.704;44.768;2023-02-15T09:26:49;95199.03;;;5.84;35.55
77889;BME280;67082;41.704;44.768;2023-02-15T09:29:17;95195.28;;;6.07;35.12
77889;BME280;67082;41.704;44.768;2023-02-15T09:31:48;95189.09;;;6.03;35.42
77889;BME280;67082;41.704;44.768;2023-02-15T09:34:20;95185.94;;;6.58;34.98
77889;BME280;67082;41.704;44.768;2023-02-15T09:36:49;95187.38;;;6.62;34.78
77889;BME280;67082;41.704;44.768;2023-02-15T09:39:22;95185.69;;;6.40;35.25
77889;BME280;67082;41.704;44.768;2023-02-15T09:45:13;95183.31;;;6.67;35.12
77889;BME280;67082;41.704;44.768;2023-02-15T09:48:22;95174.28;;;6.66;34.54
77889;BME280;67082;41.704;44.768;2023-02-15T09:51:53;95175.63;;;6.87;34.18
77889;BME280;67082;41.704;44.768;2023-02-15T09:54:37;95158.53;;;6.67;35.10
77889;BME280;67082;41.704;44.768;2023-02-15T10:00:10;95140.38;;;6.82;34.59
77889;BME280;67082;41.704;44.768;2023-02-15T10:11:46;95143.69;;;7.61;33.65
77889;BME280;67082;41.704;44.768;2023-02-15T10:31:20;95126.66;;;7.75;32.91
77889;BME280;67082;41.704;44.768;2023-02-15T10:37:13;95122.03;;;7.72;32.26
77889;BME280;67082;41.704;44.768;2023-02-15T10:48:22;95132.31;;;7.12;33.44
77889;BME280;67082;41.704;44.768;2023-02-15T10:50:57;95125.63;;;7.47;32.77
77889;BME280;67082;41.704;44.768;2023-02-15T10:53:42;95098.84;;;7.48;32.14
77889;BME280;67082;41.704;44.768;2023-02-15T11:02:51;95124.72;;;7.16;33.56
77889;BME280;67082;41.704;44.768;2023-02-15T11:07:54;95110.44;;;7.43;33.75
77889;BME280;67082;41.704;44.768;2023-02-15T11:10:47;95118.38;;;7.96;32.63
77889;BME280;67082;41.704;44.768;2023-02-15T11:13:18;95119.03;;;8.00;32.33
77889;BME280;67082;41.704;44.768;2023-02-15T11:18:43;95117.91;;;7.55;33.01
77889;BME280;67082;41.704;44.768;2023-02-15T11:23:51;95108.72;;;7.24;33.61
77889;BME280;67082;41.704;44.768;2023-02-15T11:28:59;95122.66;;;7.76;33.47
77889;BME280;67082;41.704;44.768;2023-02-15T11:31:41;95139.47;;;7.69;33.33
77889;BME280;67082;41.704;44.768;2023-02-15T11:37:01;95130.22;;;7.63;33.61
77889;BME280;67082;41.704;44.768;2023-02-15T11:39:33;95131.34;;;7.87;33.68
77889;BME280;67082;41.704;44.768;2023-02-15T11:42:11;95137.69;;;7.75;33.45
77889;BME280;67082;41.704;44.768;2023-02-15T11:45:06;95144.84;;;7.72;33.55
77889;BME280;67082;41.704;44.768;2023-02-15T11:47:34;95137.84;;;7.12;33.97
77889;BME280;67082;41.704;44.768;2023-02-15T11:50:04;95149.72;;;7.34;34.43
77889;BME280;67082;41.704;44.768;2023-02-15T11:52:32;95149.50;;;6.91;34.27
77889;BME280;67082;41.704;44.768;2023-02-15T11:55:01;95164.34;;;7.44;34.01
77889;BME280;67082;41.704;44.768;2023-02-15T11:57:57;95164.41;;;7.06;33.85
77889;BME280;67082;41.704;44.768;2023-02-15T12:00:34;95162.41;;;7.07;34.48
77889;BME280;67082;41.704;44.768;2023-02-15T12:03:20;95160.31;;;6.86;34.29
77889;BME280;67082;41.704;44.768;2023-02-15T12:05:52;95171.22;;;7.02;34.12
77889;BME280;67082;41.704;44.768;2023-02-15T12:08:21;95180.25;;;6.90;34.48
77889;BME280;67082;41.704;44.768;2023-02-15T12:13:23;95176.72;;;6.89;34.25
77889;BME280;67082;41.704;44.768;2023-02-15T12:15:55;95186.53;;;6.90;34.73
77889;BME280;67082;41.704;44.768;2023-02-15T12:18:35;95198.84;;;6.73;34.09
77889;BME280;67082;41.704;44.768;2023-02-15T12:21:16;95191.44;;;6.58;35.32
77889;BME280;67082;41.704;44.768;2023-02-15T12:24:03;95192.75;;;6.12;37.62
77889;BME280;67082;41.704;44.768;2023-02-15T12:26:34;95205.44;;;5.78;40.78
77889;BME280;67082;41.704;44.768;2023-02-15T12:29:16;95191.41;;;6.04;41.01
77889;BME280;67082;41.704;44.768;2023-02-15T12:31:47;95194.19;;;5.88;40.83
77889;BME280;67082;41.704;44.768;2023-02-15T12:34:28;95201.63;;;6.04;41.71
77889;BME280;67082;41.704;44.768;2023-02-15T12:37:01;95194.84;;;5.64;42.76
77889;BME280;67082;41.704;44.768;2023-02-15T12:39:31;95191.41;;;5.60;42.97
77889;BME280;67082;41.704;44.768;2023-02-15T12:42:23;95208.22;;;5.62;42.08
77889;BME280;67082;41.704;44.768;2023-02-15T12:45:00;95200.94;;;5.55;42.73
77889;BME280;67082;41.704;44.768;2023-02-15T12:47:30;95218.34;;;5.81;41.84
77889;BME280;67082;41.704;44.768;2023-02-15T12:50:13;95213.34;;;5.92;41.88
77889;BME280;67082;41.704;44.768;2023-02-15T12:52:50;95211.66;;;6.10;42.33
77889;BME280;67082;41.704;44.768;2023-02-15T12:55:24;95194.94;;;6.46;42.20
77889;BME280;67082;41.704;44.768;2023-02-15T12:58:17;95207.41;;;6.50;41.79
77889;BME280;67082;41.704;44.768;2023-02-15T13:00:46;95210.34;;;6.02;43.84
77889;BME280;67082;41.704;44.768;2023-02-15T13:03:21;95218.00;;;5.79;44.72
77889;BME280;67082;41.704;44.768;2023-02-15T13:05:53;95201.16;;;5.93;44.33
77889;BME280;67082;41.704;44.768;2023-02-15T13:08:35;95202.84;;;6.03;44.36
77889;BME280;67082;41.704;44.768;2023-02-15T13:11:08;95212.22;;;5.89;45.23
77889;BME280;67082;41.704;44.768;2023-02-15T13:13:59;95221.59;;;5.92;45.60
77889;BME280;67082;41.704;44.768;2023-02-15T13:16:33;95213.00;;;5.74;45.79
77889;BME280;67082;41.704;44.768;2023-02-15T13:22:37;95216.03;;;5.95;45.88
77889;BME280;67082;41.704;44.768;2023-02-15T13:25:14;95227.03;;;5.95;45.06
77889;BME280;67082;41.704;44.768;2023-02-15T13:27:48;95233.69;;;5.94;44.90
77889;BME280;67082;41.704;44.768;2023-02-15T13:30:55;95238.81;;;5.64;46.05
77889;BME280;67082;41.704;44.768;2023-02-15T13:33:42;95232.09;;;5.81;45.30
77889;BME280;67082;41.704;44.768;2023-02-15T13:50:33;95252.50;;;6.12;46.40
77889;BME280;67082;41.704;44.768;2023-02-15T13:53:21;95246.06;;;6.02;46.70
77889;BME280;67082;41.704;44.768;2023-02-15T13:55:57;95251.38;;;6.09;46.54
77889;BME280;67082;41.704;44.768;2023-02-15T14:01:43;95252.00;;;6.29;46.28
77889;BME280;67082;41.704;44.768;2023-02-15T14:13:05;95258.44;;;6.10;47.02
77889;BME280;67082;41.704;44.768;2023-02-15T14:15:46;95257.44;;;5.88;47.94
77889;BME280;67082;41.704;44.768;2023-02-15T14:21:13;95270.13;;;5.98;47.62
77889;BME280;67082;41.704;44.768;2023-02-15T14:32:03;95275.91;;;5.88;48.26
77889;BME280;67082;41.704;44.768;2023-02-15T14:37:08;95268.34;;;5.60;48.61
77889;BME280;67082;41.704;44.768;2023-02-15T14:44:04;95290.41;;;5.56;48.40
77889;BME280;67082;41.704;44.768;2023-02-15T14:48:56;95302.59;;;5.39;49.02
77889;BME280;67082;41.704;44.768;2023-02-15T14:54:10;95300.47;;;5.47;48.72
77889;BME280;67082;41.704;44.768;2023-02-15T14:56:38;95309.19;;;5.42;49.43
77889;BME280;67082;41.704;44.768;2023-02-15T14:59:20;95314.34;;;5.24;49.93
77889;BME280;67082;41.704;44.768;2023-02-15T15:02:03;95327.31;;;5.04;50.28
77889;BME280;67082;41.704;44.768;2023-02-15T15:04:35;95329.81;;;5.14;50.33
77889;BME280;67082;41.704;44.768;2023-02-15T15:07:21;95323.75;;;5.23;49.82
77889;BME280;67082;41.704;44.768;2023-02-15T15:10:04;95328.56;;;5.35;49.65
77889;BME280;67082;41.704;44.768;2023-02-15T15:13:34;95343.84;;;5.00;50.25
77889;BME280;67082;41.704;44.768;2023-02-15T15:15:45;95341.59;;;4.95;50.76
77889;BME280;67082;41.704;44.768;2023-02-15T15:18:46;95346.81;;;5.09;49.72
77889;BME280;67082;41.704;44.768;2023-02-15T15:42:01;95391.06;;;4.53;53.47
77889;BME280;67082;41.704;44.768;2023-02-15T15:50:20;95410.03;;;4.67;53.31
77889;BME280;67082;41.704;44.768;2023-02-15T15:52:55;95404.94;;;4.65;53.56
77889;BME280;67082;41.704;44.768;2023-02-15T15:55:26;95407.06;;;4.77;53.25
77889;BME280;67082;41.704;44.768;2023-02-15T15:58:03;95412.81;;;4.83;53.52
77889;BME280;67082;41.704;44.768;2023-02-15T16:03:04;95420.31;;;4.82;54.19
77889;BME280;67082;41.704;44.768;2023-02-15T16:05:37;95433.03;;;4.73;54.23
77889;BME280;67082;41.704;44.768;2023-02-15T16:08:06;95424.44;;;4.71;54.72
77889;BME280;67082;41.704;44.768;2023-02-15T16:10:35;95432.44;;;4.62;55.08
77889;BME280;67082;41.704;44.768;2023-02-15T16:13:06;95419.16;;;4.60;55.01
77889;BME280;67082;41.704;44.768;2023-02-15T16:15:42;95436.47;;;4.57;55.06
77889;BME280;67082;41.704;44.768;2023-02-15T16:18:15;95430.91;;;4.61;55.37
77889;BME280;67082;41.704;44.768;2023-02-15T16:20:51;95424.81;;;4.50;54.51
77889;BME280;67082;41.704;44.768;2023-02-15T16:28:50;95432.47;;;4.16;54.13
77889;BME280;67082;41.704;44.768;2023-02-15T16:31:20;95440.09;;;4.28;54.10